createdAt,value
2022-08-26T00:02:22.555Z,23
2022-08-26T00:07:34.051Z,23
2022-08-26T00:12:47.429Z,23
2022-08-26T00:17:59.782Z,23
2022-08-26T00:23:11.762Z,23
2022-08-26T00:28:24.400Z,23
2022-08-26T00:33:36.251Z,22
2022-08-26T00:38:48.610Z,23
2022-08-26T00:44:01.241Z,23
2022-08-26T00:49:13.670Z,23
2022-08-26T00:54:27.630Z,23
2022-08-26T00:59:39.716Z,23
2022-08-26T01:04:56.818Z,22
2022-08-26T01:10:11.259Z,22
2022-08-26T01:15:22.987Z,22
2022-08-26T01:20:35.262Z,22
2022-08-26T01:25:47.341Z,22
2022-08-26T01:31:01.287Z,22
2022-08-26T01:36:13.533Z,22
2022-08-26T01:41:29.443Z,22
2022-08-26T01:46:41.766Z,22
2022-08-26T01:51:53.825Z,22
2022-08-26T01:57:06.013Z,22
2022-08-26T02:02:18.904Z,22
2022-08-26T02:07:33.784Z,22
2022-08-26T02:12:45.663Z,22
2022-08-26T02:17:58.055Z,22
2022-08-26T02:23:10.093Z,22
2022-08-26T02:28:27.173Z,22
2022-08-26T02:33:43.825Z,22
2022-08-26T02:38:56.914Z,22
2022-08-26T02:44:09.753Z,21
2022-08-26T02:49:22.229Z,21
2022-08-26T02:54:34.194Z,21
2022-08-26T02:59:46.554Z,21
2022-08-26T03:05:03.033Z,21
2022-08-26T03:10:15.343Z,21
2022-08-26T03:15:27.415Z,21
2022-08-26T03:20:41.473Z,21
2022-08-26T03:25:58.573Z,21
2022-08-26T03:31:26.312Z,21
2022-08-26T03:36:36.692Z,21
2022-08-26T03:41:48.555Z,21
2022-08-26T03:47:06.173Z,21
2022-08-26T03:52:20.563Z,21
2022-08-26T03:57:32.983Z,21
2022-08-26T04:02:45.276Z,21
2022-08-26T04:07:59.272Z,21
2022-08-26T04:13:12.633Z,21
2022-08-26T04:18:24.293Z,21
2022-08-26T04:23:48.595Z,21
2022-08-26T04:28:59.862Z,21
2022-08-26T04:34:14.353Z,21
2022-08-26T04:39:28.271Z,21
2022-08-26T04:44:40.053Z,20
2022-08-26T04:49:52.793Z,21
2022-08-26T04:55:08.862Z,21
2022-08-26T05:00:21.524Z,20
2022-08-26T05:05:33.703Z,21
2022-08-26T05:10:47.463Z,21
2022-08-26T05:16:01.899Z,21
2022-08-26T05:21:13.824Z,21
2022-08-26T05:26:27.565Z,21
2022-08-26T05:31:40.165Z,21
2022-08-26T05:36:52.174Z,20
2022-08-26T05:42:04.654Z,21
2022-08-26T05:47:19.716Z,21
2022-08-26T05:52:31.428Z,21
2022-08-26T05:57:43.805Z,21
2022-08-26T06:02:56.599Z,21
2022-08-26T06:08:10.438Z,21
2022-08-26T06:13:24.819Z,21
2022-08-26T06:18:36.124Z,22
2022-08-26T06:23:48.667Z,22
2022-08-26T06:29:04.398Z,22
2022-08-26T06:34:18.542Z,22
2022-08-26T06:39:31.926Z,22
2022-08-26T06:44:45.446Z,22
2022-08-26T06:49:57.300Z,22
2022-08-26T06:55:09.744Z,23
2022-08-26T07:00:22.405Z,23
2022-08-26T07:05:35.705Z,23
2022-08-26T07:10:47.674Z,23
2022-08-26T07:16:04.424Z,23
2022-08-26T07:21:23.970Z,23
2022-08-26T07:26:35.733Z,24
2022-08-26T07:31:49.433Z,24
2022-08-26T07:37:02.509Z,24
2022-08-26T07:42:14.515Z,24
2022-08-26T07:47:26.954Z,24
2022-08-26T07:52:41.057Z,24
2022-08-26T07:57:52.764Z,25
2022-08-26T08:03:05.437Z,25
2022-08-26T08:08:29.462Z,25
2022-08-26T08:13:56.990Z,25
2022-08-26T08:19:07.032Z,25
2022-08-26T08:24:19.269Z,25
2022-08-26T08:29:35.171Z,26
2022-08-26T08:34:46.832Z,26
2022-08-26T08:39:59.670Z,26
2022-08-26T08:45:12.121Z,26
2022-08-26T08:50:25.758Z,26
2022-08-26T08:55:39.072Z,26
2022-08-26T09:00:52.027Z,27
2022-08-26T09:06:04.468Z,27
2022-08-26T09:11:17.853Z,27
2022-08-26T09:16:30.481Z,27
2022-08-26T09:21:44.538Z,27
2022-08-26T09:26:56.547Z,28
2022-08-26T09:32:09.016Z,28
2022-08-26T09:37:22.684Z,28
2022-08-26T09:42:40.435Z,28
2022-08-26T09:48:02.483Z,28
2022-08-26T09:53:21.191Z,28
2022-08-26T09:58:42.368Z,28
2022-08-26T10:03:54.740Z,29
2022-08-26T10:09:11.347Z,29
2022-08-26T10:14:25.235Z,29
2022-08-26T10:19:58.009Z,29
2022-08-26T10:25:06.594Z,29
2022-08-26T10:30:19.327Z,29
2022-08-26T10:35:31.627Z,29
2022-08-26T10:40:44.362Z,30
2022-08-26T10:46:04.313Z,29
2022-08-26T10:51:18.242Z,30
2022-08-26T10:56:33.661Z,30
2022-08-26T11:01:54.111Z,30
2022-08-26T11:07:06.956Z,30
2022-08-26T11:12:21.669Z,31
2022-08-26T11:17:33.288Z,31
2022-08-26T11:22:48.685Z,32
2022-08-26T11:28:02.036Z,35
2022-08-26T11:33:20.574Z,37
2022-08-26T11:54:10.691Z,37
2022-08-26T11:59:22.840Z,37
2022-08-26T12:04:38.105Z,38
2022-08-26T12:09:50.291Z,39
2022-08-26T12:25:26.031Z,37
2022-08-26T12:30:38.550Z,39
2022-08-26T12:35:57.070Z,39
2022-08-26T12:41:09.700Z,40
2022-08-26T12:46:24.373Z,41
2022-08-26T12:56:52.790Z,40
2022-08-26T13:02:07.106Z,40
2022-08-26T13:17:40.158Z,36
2022-08-26T13:22:59.701Z,36
2022-08-26T13:33:21.761Z,36
2022-08-26T13:43:45.272Z,35
2022-08-26T13:59:19.151Z,33
2022-08-26T14:04:31.624Z,32
2022-08-26T14:09:43.916Z,32
2022-08-26T14:30:28.595Z,32
2022-08-26T14:35:50.144Z,33
2022-08-26T14:41:01.145Z,33
2022-08-26T14:46:14.142Z,33
2022-08-26T14:51:26.844Z,33
2022-08-26T14:56:39.677Z,34
2022-08-26T15:17:24.418Z,32
2022-08-26T15:22:36.965Z,33
2022-08-26T15:27:50.124Z,33
2022-08-26T15:33:03.094Z,33
2022-08-26T16:04:09.118Z,32
2022-08-26T16:14:31.665Z,31
2022-08-26T16:19:44.295Z,31
2022-08-26T16:35:16.984Z,31
2022-08-26T16:40:29.852Z,30
2022-08-26T16:50:52.334Z,30
2022-08-26T17:01:14.602Z,29
2022-08-26T17:16:47.216Z,29
2022-08-26T17:21:59.715Z,28
2022-08-26T17:27:12.046Z,28
2022-08-26T17:32:24.384Z,28
2022-08-26T17:37:38.245Z,28
2022-08-26T17:42:50.074Z,28
2022-08-26T17:48:02.348Z,27
2022-08-26T17:53:20.028Z,27
2022-08-26T17:58:35.228Z,27
2022-08-26T18:03:47.843Z,27
2022-08-26T18:09:00.399Z,27
2022-08-26T18:14:12.837Z,27
2022-08-26T18:19:25.298Z,27
2022-08-26T18:24:37.711Z,27
2022-08-26T18:29:50.286Z,27
2022-08-26T18:35:02.937Z,26
2022-08-26T18:40:15.609Z,26
2022-08-26T18:45:28.237Z,26
2022-08-26T18:50:40.747Z,26
2022-08-26T18:56:01.998Z,26
2022-08-26T19:01:15.315Z,26
2022-08-26T19:06:27.807Z,26
2022-08-26T19:11:43.803Z,26
2022-08-26T19:16:59.252Z,26
2022-08-26T19:22:11.818Z,26
2022-08-26T19:27:27.257Z,25
2022-08-26T19:32:45.127Z,26
2022-08-26T19:37:57.797Z,26
2022-08-26T19:43:12.537Z,25
2022-08-26T19:48:28.458Z,26
2022-08-26T19:53:42.016Z,25
2022-08-26T19:58:54.346Z,25
2022-08-26T20:04:06.955Z,25
2022-08-26T20:09:19.489Z,25
2022-08-26T20:14:32.056Z,25
2022-08-26T20:19:44.998Z,25
2022-08-26T20:24:57.589Z,25
2022-08-26T20:30:10.078Z,25
2022-08-26T20:35:22.706Z,25
2022-08-26T20:40:36.054Z,25
2022-08-26T20:45:49.638Z,25
2022-08-26T20:51:02.456Z,25
2022-08-26T20:56:15.206Z,25
2022-08-26T21:01:28.005Z,25
2022-08-26T21:06:53.225Z,25
2022-08-26T21:12:03.896Z,25
2022-08-26T21:17:16.265Z,25
2022-08-26T21:22:28.966Z,25
2022-08-26T21:27:41.655Z,25
2022-08-26T21:32:54.297Z,25
2022-08-26T21:38:07.246Z,25
2022-08-26T21:43:36.167Z,24
2022-08-26T21:48:51.424Z,24
2022-08-26T21:54:11.927Z,24
2022-08-26T21:59:26.846Z,24
2022-08-26T22:04:39.326Z,24
2022-08-26T22:09:51.775Z,24
2022-08-26T22:15:03.769Z,24
2022-08-26T22:20:17.296Z,24
2022-08-26T22:25:29.310Z,24
2022-08-26T22:30:41.914Z,24
2022-08-26T22:35:54.227Z,24
2022-08-26T22:41:08.957Z,24
2022-08-26T22:46:20.315Z,24
2022-08-26T22:51:32.505Z,24
2022-08-26T22:56:44.576Z,24
2022-08-26T23:01:56.757Z,23
2022-08-26T23:07:09.124Z,23
2022-08-26T23:12:21.326Z,23
2022-08-26T23:17:33.604Z,23
2022-08-26T23:22:45.765Z,23
2022-08-26T23:27:57.885Z,23
2022-08-26T23:33:10.298Z,23
2022-08-26T23:38:22.476Z,23
2022-08-26T23:43:34.706Z,23
2022-08-26T23:48:46.925Z,23
2022-08-26T23:53:59.216Z,23
2022-08-26T23:59:11.285Z,23
